Terminal Aerodrome Forecast
Issued by NWS

Home | Current Version | Previous Version | Text Only | Print | Product List | Glossary On
Versions: 1 2 3 4 5 6 7 8 9 10 11 12
000
FTUS42 KGSP 221200 CCA
TAFHKY
TAF COR
KHKY 221200Z 2212/2312 00000KT 5SM BR SCT250
     FM221300 VRB03KT P6SM SCT250
     FM221700 14004KT P6SM SCT050 BKN200
     FM230000 10004KT P6SM BKN050
     FM230500 11004KT 5SM BR BKN025 PROB30 2305/2307 2SM -SHRA BR
      OVC008
     FM230700 10004KT 4SM BR OVC008 PROB30 2307/2310 2SM -SHRA BR
      OVC003
     FM231000 10006KT 2SM -SHRA BR OVC003=

USA.gov is the U.S. government's official web portal to all federal, state and local government web resources and services.